createdAt,value
2016-08-01T00:00:29.643Z,21.88
2016-08-01T00:01:29.657Z,21.77
2016-08-01T00:02:29.680Z,21.67
2016-08-01T00:04:29.737Z,21.77
2016-08-01T00:05:29.757Z,21.88
2016-08-01T00:06:29.781Z,21.79
2016-08-01T00:07:29.805Z,21.86
2016-08-01T00:08:29.834Z,21.77
2016-08-01T00:09:29.856Z,21.75
2016-08-01T00:10:29.878Z,21.8
2016-08-01T00:11:29.902Z,21.74
2016-08-01T00:12:29.930Z,21.82
2016-08-01T00:13:29.955Z,21.77
2016-08-01T00:14:29.992Z,21.84
2016-08-01T00:15:30.010Z,21.79
2016-08-01T00:16:30.030Z,21.72
2016-08-01T00:17:30.055Z,21.77
2016-08-01T00:19:30.101Z,21.69
2016-08-01T00:20:30.831Z,21.65
2016-08-01T00:21:30.154Z,21.67
2016-08-01T00:22:30.177Z,21.75
2016-08-01T00:23:30.204Z,21.69
2016-08-01T00:24:30.230Z,21.71
2016-08-01T00:25:30.250Z,21.75
2016-08-01T00:26:30.303Z,21.75
2016-08-01T00:27:30.302Z,21.91
2016-08-01T00:28:30.324Z,21.68
2016-08-01T00:29:30.367Z,21.75
2016-08-01T00:30:30.378Z,21.84
2016-08-01T00:31:30.399Z,21.75
2016-08-01T00:32:30.433Z,21.74
2016-08-01T00:34:30.472Z,21.79
2016-08-01T00:35:30.500Z,21.68
2016-08-01T00:36:30.525Z,21.75
2016-08-01T00:37:30.546Z,21.68
2016-08-01T00:38:30.572Z,21.69
2016-08-01T00:39:30.612Z,21.77
2016-08-01T00:40:30.631Z,21.69
2016-08-01T00:41:30.649Z,21.75
2016-08-01T00:42:30.674Z,21.69
2016-08-01T00:43:30.698Z,21.74
2016-08-01T00:44:30.722Z,21.74
2016-08-01T00:45:30.754Z,21.75
2016-08-01T00:46:30.771Z,21.65
2016-08-01T00:47:30.799Z,21.74
2016-08-01T00:49:30.847Z,21.71
2016-08-01T00:50:30.872Z,21.68
2016-08-01T00:51:30.906Z,21.53
2016-08-01T00:52:30.920Z,21.54
2016-08-01T00:53:30.949Z,21.67
2016-08-01T00:54:30.977Z,21.69
2016-08-01T00:55:30.992Z,21.74
2016-08-01T00:56:31.022Z,21.71
2016-08-01T00:57:31.054Z,21.64
2016-08-01T00:58:31.069Z,21.67
2016-08-01T00:59:31.094Z,21.68
2016-08-01T01:00:31.118Z,21.71
2016-08-01T01:01:31.144Z,21.62
2016-08-01T01:02:31.169Z,21.56
2016-08-01T01:04:31.217Z,21.61
2016-08-01T01:05:31.258Z,21.52
2016-08-01T01:06:31.266Z,21.58
2016-08-01T01:07:31.291Z,21.61
2016-08-01T01:08:31.317Z,21.52
2016-08-01T01:09:31.341Z,21.5
2016-08-01T01:10:31.373Z,21.58
2016-08-01T01:11:31.390Z,21.59
2016-08-01T01:12:31.428Z,21.56
2016-08-01T01:13:31.438Z,21.64
2016-08-01T01:14:31.472Z,21.68
2016-08-01T01:15:31.486Z,21.52
2016-08-01T01:16:31.512Z,21.58
2016-08-01T01:17:31.535Z,21.62
2016-08-01T01:19:31.584Z,21.58
2016-08-01T01:20:31.611Z,21.47
2016-08-01T01:21:31.636Z,21.68
2016-08-01T01:22:31.664Z,21.62
2016-08-01T01:23:31.684Z,21.56
2016-08-01T01:24:31.718Z,21.5
2016-08-01T01:25:31.736Z,21.59
2016-08-01T01:26:31.767Z,21.61
2016-08-01T01:27:31.786Z,21.47
2016-08-01T01:28:31.809Z,21.52
2016-08-01T01:29:31.835Z,21.58
2016-08-01T01:30:31.859Z,21.61
2016-08-01T01:31:31.881Z,21.54
2016-08-01T01:32:31.918Z,21.38
2016-08-01T01:34:31.956Z,21.5
2016-08-01T01:35:31.982Z,21.5
2016-08-01T01:36:32.008Z,21.49
2016-08-01T01:37:32.032Z,21.61
2016-08-01T01:38:32.061Z,21.46
2016-08-01T01:39:32.089Z,21.44
2016-08-01T01:40:32.106Z,21.67
2016-08-01T01:41:32.128Z,21.53
2016-08-01T01:42:32.157Z,21.53
2016-08-01T01:43:32.178Z,21.56
2016-08-01T01:44:32.208Z,21.59
2016-08-01T01:45:32.229Z,21.61
2016-08-01T01:46:32.256Z,21.47
2016-08-01T01:47:32.275Z,21.46
2016-08-01T01:48:32.305Z,21.34
2016-08-01T01:49:32.328Z,21.49
2016-08-01T01:50:32.351Z,21.54
2016-08-01T01:51:32.377Z,21.53
2016-08-01T01:52:32.398Z,21.5
2016-08-01T01:53:32.422Z,21.35
2016-08-01T01:54:32.451Z,21.4
2016-08-01T01:55:32.475Z,21.43
2016-08-01T01:56:32.499Z,21.5
2016-08-01T01:57:32.524Z,21.43
2016-08-01T01:58:32.550Z,21.37
2016-08-01T01:59:32.570Z,21.38
2016-08-01T02:00:32.598Z,21.32
2016-08-01T02:01:32.622Z,21.44
2016-08-01T02:02:32.644Z,21.53
2016-08-01T02:03:32.684Z,21.59
2016-08-01T02:04:32.692Z,21.44
2016-08-01T02:05:32.716Z,21.54
2016-08-01T02:06:32.748Z,21.4
2016-08-01T02:07:32.769Z,21.44
2016-08-01T02:08:33.495Z,21.5
2016-08-01T02:09:32.818Z,21.54
2016-08-01T02:10:32.844Z,21.5
2016-08-01T02:11:32.865Z,21.43
2016-08-01T02:12:32.893Z,21.43
2016-08-01T02:13:32.915Z,21.43
2016-08-01T02:14:32.941Z,21.44
2016-08-01T02:15:32.964Z,21.53
2016-08-01T02:16:32.990Z,21.46
2016-08-01T02:17:33.012Z,21.34
2016-08-01T02:18:33.051Z,21.32
2016-08-01T02:19:33.765Z,21.47
2016-08-01T02:20:33.085Z,21.46
2016-08-01T02:21:33.113Z,21.46
2016-08-01T02:22:33.138Z,21.4
2016-08-01T02:23:33.157Z,21.5
2016-08-01T02:24:33.186Z,21.43
2016-08-01T02:25:33.211Z,21.62
2016-08-01T02:26:33.235Z,21.44
2016-08-01T02:27:33.257Z,21.61
2016-08-01T02:28:33.288Z,21.53
2016-08-01T02:29:33.308Z,21.62
2016-08-01T02:30:33.333Z,21.5
2016-08-01T02:31:33.357Z,21.46
2016-08-01T02:32:33.385Z,21.54
2016-08-01T02:33:33.407Z,21.35
2016-08-01T02:34:33.435Z,21.49
2016-08-01T02:35:33.457Z,21.59
2016-08-01T02:36:33.484Z,21.5
2016-08-01T02:37:33.507Z,21.44
2016-08-01T02:38:33.530Z,21.46
2016-08-01T02:39:33.552Z,21.56
2016-08-01T02:40:33.589Z,21.61
2016-08-01T02:41:34.350Z,21.46
2016-08-01T02:42:33.626Z,21.54
2016-08-01T02:43:33.653Z,21.44
2016-08-01T02:44:33.678Z,21.43
2016-08-01T02:45:33.700Z,21.46
2016-08-01T02:46:33.726Z,21.58
2016-08-01T02:47:33.755Z,21.52
2016-08-01T02:48:33.773Z,21.52
2016-08-01T02:49:33.797Z,21.43
2016-08-01T02:50:33.824Z,21.54
2016-08-01T02:51:33.849Z,21.46
2016-08-01T02:52:33.871Z,21.32
2016-08-01T02:53:33.896Z,21.37
2016-08-01T02:54:33.923Z,21.4
2016-08-01T02:55:33.947Z,21.38
2016-08-01T02:56:33.970Z,21.35
2016-08-01T02:57:33.996Z,21.46
2016-08-01T02:58:34.022Z,21.42
2016-08-01T02:59:34.044Z,21.47
2016-08-01T03:00:34.068Z,21.42
2016-08-01T03:01:34.096Z,21.53
2016-08-01T03:02:34.119Z,21.59
2016-08-01T03:03:34.144Z,21.53
2016-08-01T03:04:34.173Z,21.58
2016-08-01T03:05:34.908Z,21.43
2016-08-01T03:06:34.217Z,21.54
2016-08-01T03:07:34.241Z,21.46
2016-08-01T03:08:34.266Z,21.52
2016-08-01T03:09:34.986Z,21.43
2016-08-01T03:10:34.317Z,21.42
2016-08-01T03:11:34.340Z,21.47
2016-08-01T03:12:34.364Z,21.46
2016-08-01T03:13:34.389Z,21.47
2016-08-01T03:14:34.412Z,21.35
2016-08-01T03:15:34.441Z,21.4
2016-08-01T03:16:34.463Z,21.34
2016-08-01T03:17:34.486Z,21.29
2016-08-01T03:18:34.511Z,21.44
2016-08-01T03:19:34.539Z,21.34
2016-08-01T03:20:34.561Z,21.43
2016-08-01T03:21:34.584Z,21.49
2016-08-01T03:22:34.610Z,21.38
2016-08-01T03:23:34.635Z,21.49
2016-08-01T03:24:34.661Z,21.53
2016-08-01T03:25:34.683Z,21.44
2016-08-01T03:26:35.416Z,21.53
2016-08-01T03:27:34.732Z,21.47
2016-08-01T03:28:34.757Z,21.44
2016-08-01T03:29:34.781Z,21.47
2016-08-01T03:30:34.803Z,21.53
2016-08-01T03:31:34.831Z,21.42
2016-08-01T03:32:35.551Z,21.38
2016-08-01T03:33:34.884Z,21.35
2016-08-01T03:34:34.903Z,21.44
2016-08-01T03:35:34.929Z,21.52
2016-08-01T03:36:34.952Z,21.38
2016-08-01T03:37:34.988Z,21.37
2016-08-01T03:38:35.701Z,21.38
2016-08-01T03:39:35.036Z,21.38
2016-08-01T03:40:35.048Z,21.38
2016-08-01T03:41:35.075Z,21.38
2016-08-01T03:42:35.099Z,21.4
2016-08-01T03:43:35.125Z,21.43
2016-08-01T03:44:35.150Z,21.37
2016-08-01T03:45:35.177Z,21.44
2016-08-01T03:46:35.197Z,21.42
2016-08-01T03:47:35.225Z,21.44
2016-08-01T03:48:35.248Z,21.34
2016-08-01T03:49:35.274Z,21.49
2016-08-01T03:50:35.296Z,21.31
2016-08-01T03:51:35.321Z,21.37
2016-08-01T03:52:35.344Z,21.46
2016-08-01T03:53:35.371Z,21.46
2016-08-01T03:54:35.396Z,21.46
2016-08-01T03:55:35.419Z,21.46
2016-08-01T03:56:35.451Z,21.5
2016-08-01T03:57:35.469Z,21.49
2016-08-01T03:58:35.493Z,21.46
2016-08-01T03:59:35.517Z,21.46
2016-08-01T04:00:35.542Z,21.47
2016-08-01T04:01:35.564Z,21.43
2016-08-01T04:02:35.592Z,21.4
2016-08-01T04:03:35.622Z,21.43
2016-08-01T04:04:35.641Z,21.38
2016-08-01T04:05:35.666Z,21.5
2016-08-01T04:06:35.688Z,21.5
2016-08-01T04:07:35.715Z,21.5
2016-08-01T04:08:35.739Z,21.38
2016-08-01T04:09:35.762Z,21.42
2016-08-01T04:10:35.787Z,21.46
2016-08-01T04:11:35.814Z,21.46
2016-08-01T04:12:35.837Z,21.46
2016-08-01T04:13:35.862Z,21.56
2016-08-01T04:14:35.887Z,21.58
2016-08-01T04:15:35.912Z,21.5
2016-08-01T04:16:35.933Z,21.38
2016-08-01T04:17:35.963Z,21.5
2016-08-01T04:18:35.984Z,21.5
2016-08-01T04:19:36.008Z,21.44
2016-08-01T04:20:36.032Z,21.47
2016-08-01T04:21:36.056Z,21.49
2016-08-01T04:22:36.083Z,21.42
2016-08-01T04:23:36.108Z,21.44
2016-08-01T04:24:36.131Z,21.58
2016-08-01T04:25:36.154Z,21.46
2016-08-01T04:26:36.182Z,21.49
2016-08-01T04:27:36.205Z,21.46
2016-08-01T04:28:36.949Z,21.4
2016-08-01T04:29:36.254Z,21.52
2016-08-01T04:30:36.276Z,21.49
2016-08-01T04:31:36.304Z,21.47
2016-08-01T04:32:37.028Z,21.5
2016-08-01T04:33:36.349Z,21.54
2016-08-01T04:34:36.376Z,21.43
2016-08-01T04:35:36.399Z,21.43
2016-08-01T04:36:36.436Z,21.74
2016-08-01T04:37:36.468Z,21.67
2016-08-01T04:38:36.483Z,21.47
2016-08-01T04:39:36.498Z,21.46
2016-08-01T04:40:36.523Z,21.49
2016-08-01T04:41:36.547Z,21.47
2016-08-01T04:42:36.575Z,21.44
2016-08-01T04:43:36.598Z,21.56
2016-08-01T04:44:36.632Z,21.58
2016-08-01T04:45:36.646Z,21.64
2016-08-01T04:46:36.680Z,21.61
2016-08-01T04:47:36.695Z,21.49
2016-08-01T04:48:36.727Z,21.5
2016-08-01T04:49:36.750Z,21.52
2016-08-01T04:50:36.775Z,21.58
2016-08-01T04:51:36.797Z,21.56
2016-08-01T04:52:36.827Z,21.58
2016-08-01T04:53:37.542Z,21.64
2016-08-01T04:54:36.870Z,21.61
2016-08-01T04:55:36.894Z,21.62
2016-08-01T04:56:36.918Z,21.61
2016-08-01T04:57:36.939Z,21.54
2016-08-01T04:58:36.967Z,21.53
2016-08-01T04:59:36.991Z,21.65
2016-08-01T05:00:37.017Z,21.59
2016-08-01T05:01:37.042Z,21.71
2016-08-01T05:02:37.067Z,21.58
2016-08-01T05:03:37.088Z,21.58
2016-08-01T05:04:37.813Z,21.54
2016-08-01T05:05:37.139Z,21.69
2016-08-01T05:06:37.171Z,21.69
2016-08-01T05:07:37.188Z,21.72
2016-08-01T05:08:37.214Z,21.67
2016-08-01T05:09:37.241Z,21.56
2016-08-01T05:10:37.267Z,21.69
2016-08-01T05:11:37.286Z,21.71
2016-08-01T05:12:37.312Z,21.72
2016-08-01T05:13:37.337Z,21.77
2016-08-01T05:14:37.361Z,21.75
2016-08-01T05:15:37.384Z,21.71
2016-08-01T05:16:37.415Z,21.65
2016-08-01T05:17:37.433Z,21.68
2016-08-01T05:18:37.460Z,21.54
2016-08-01T05:19:37.485Z,21.67
2016-08-01T05:20:37.527Z,21.61
2016-08-01T05:21:37.539Z,21.53
2016-08-01T05:22:37.559Z,21.71
2016-08-01T05:23:37.586Z,21.83
2016-08-01T05:24:37.610Z,21.75
2016-08-01T05:25:37.634Z,21.74
2016-08-01T05:26:37.652Z,21.77
2016-08-01T05:27:37.680Z,21.68
2016-08-01T05:28:37.705Z,21.75
2016-08-01T05:29:37.729Z,21.77
2016-08-01T05:30:37.753Z,21.77
2016-08-01T05:31:37.779Z,21.79
2016-08-01T05:32:37.817Z,21.75
2016-08-01T05:33:37.828Z,21.77
2016-08-01T05:34:37.850Z,21.77
2016-08-01T05:35:37.879Z,21.88
2016-08-01T05:36:37.901Z,21.83
2016-08-01T05:37:37.927Z,21.91
2016-08-01T05:38:37.951Z,21.96
2016-08-01T05:39:37.977Z,22
2016-08-01T05:40:38.000Z,21.98
2016-08-01T05:41:38.025Z,21.98
2016-08-01T05:42:38.050Z,22.02
2016-08-01T05:43:38.073Z,22.07
2016-08-01T05:44:38.103Z,22.05
2016-08-01T05:45:38.123Z,22.06
2016-08-01T05:46:38.147Z,22.43
2016-08-01T05:47:38.177Z,23.04
2016-08-01T05:48:38.200Z,22.72
2016-08-01T05:49:38.224Z,22.75
2016-08-01T05:50:38.251Z,23.1
2016-08-01T05:51:38.276Z,23.63
2016-08-01T05:52:38.301Z,23.95
2016-08-01T05:53:38.324Z,23.75
2016-08-01T05:54:38.346Z,24.21
2016-08-01T05:55:38.370Z,24.43
2016-08-01T05:56:38.404Z,24.61
2016-08-01T05:57:38.422Z,24.9
2016-08-01T05:58:38.445Z,25.05
2016-08-01T05:59:38.477Z,25.1
2016-08-01T06:00:38.499Z,25.38
2016-08-01T06:01:38.524Z,25.42
2016-08-01T06:02:38.552Z,25.6
2016-08-01T06:03:38.575Z,25.65
2016-08-01T06:04:38.601Z,25.58
2016-08-01T06:05:39.334Z,25.14
2016-08-01T06:06:38.654Z,24.6
2016-08-01T06:07:38.677Z,24.34
2016-08-01T06:08:38.707Z,24.27
2016-08-01T06:09:38.730Z,24.25
2016-08-01T06:10:38.755Z,24.24
2016-08-01T06:11:38.787Z,24.25
2016-08-01T06:12:38.809Z,24.32
2016-08-01T06:13:38.834Z,24.42
2016-08-01T06:14:38.864Z,24.39
2016-08-01T06:15:38.888Z,24.46
2016-08-01T06:16:38.913Z,24.42
2016-08-01T06:17:38.941Z,24.47
2016-08-01T06:18:38.968Z,24.69
2016-08-01T06:20:39.022Z,24.81
2016-08-01T06:21:39.050Z,24.98
2016-08-01T06:22:39.073Z,25.09
2016-08-01T06:23:39.101Z,25.38
2016-08-01T06:24:39.131Z,25.94
2016-08-01T06:25:39.154Z,26.26
2016-08-01T06:26:39.183Z,26.47
2016-08-01T06:27:39.209Z,26.44
2016-08-01T06:28:39.236Z,26.1
2016-08-01T06:29:39.266Z,26.1
2016-08-01T06:30:39.292Z,26.44
2016-08-01T06:31:39.318Z,26.72
2016-08-01T06:32:39.345Z,26.8
2016-08-01T06:33:39.367Z,26.81
2016-08-01T06:35:39.425Z,26.84
2016-08-01T06:36:39.452Z,26.73
2016-08-01T06:37:39.481Z,26.76
2016-08-01T06:38:39.508Z,26.95
2016-08-01T06:39:39.547Z,27.17
2016-08-01T06:40:39.564Z,27.14
2016-08-01T06:41:39.592Z,26.94
2016-08-01T06:42:39.617Z,26.82
2016-08-01T06:43:39.643Z,26.8
2016-08-01T06:44:39.672Z,27.04
2016-08-01T06:45:39.700Z,27.24
2016-08-01T06:46:39.728Z,27.49
2016-08-01T06:47:39.754Z,27.27
2016-08-01T06:48:39.791Z,27.41
2016-08-01T06:50:41.033Z,26.82
2016-08-01T06:51:39.863Z,26.94
2016-08-01T06:52:39.895Z,27.02
2016-08-01T06:53:39.917Z,27.13
2016-08-01T06:54:39.944Z,27.32
2016-08-01T06:55:39.975Z,27.31
2016-08-01T06:56:40.002Z,27.17
2016-08-01T06:57:40.029Z,27.04
2016-08-01T06:58:40.056Z,26.89
2016-08-01T06:59:40.085Z,26.89
2016-08-01T07:00:40.116Z,26.95
2016-08-01T07:01:40.139Z,26.8
2016-08-01T07:02:40.167Z,26.92
2016-08-01T07:03:40.198Z,27.12
2016-08-01T07:04:40.224Z,27.04
2016-08-01T07:05:40.253Z,27.19
2016-08-01T07:06:40.282Z,27.12
2016-08-01T07:07:40.308Z,26.91
2016-08-01T07:08:40.333Z,26.77
2016-08-01T07:09:40.362Z,26.8
2016-08-01T07:10:40.396Z,26.94
2016-08-01T07:11:40.415Z,27.82
2016-08-01T07:12:40.448Z,28.03
2016-08-01T07:13:40.474Z,28.27
2016-08-01T07:14:40.500Z,28.15
2016-08-01T07:15:40.531Z,27.96
2016-08-01T07:16:40.567Z,28.11
2016-08-01T07:17:40.590Z,28.34
2016-08-01T07:18:40.613Z,28.39
2016-08-01T07:19:40.652Z,28.55
2016-08-01T07:20:40.670Z,28.61
2016-08-01T07:21:40.699Z,28.43
2016-08-01T07:22:40.726Z,28.24
2016-08-01T07:23:40.755Z,28.19
2016-08-01T07:24:40.785Z,28.37
2016-08-01T07:25:40.813Z,28.15
2016-08-01T07:26:40.842Z,27.82
2016-08-01T07:27:40.868Z,27.9
2016-08-01T07:28:40.901Z,27.69
2016-08-01T07:29:40.931Z,27.59
2016-08-01T07:30:40.954Z,27.44
2016-08-01T07:31:40.993Z,27.34
2016-08-01T07:32:41.012Z,27.32
2016-08-01T07:33:41.038Z,27.43
2016-08-01T07:34:41.068Z,27.66
2016-08-01T07:35:41.099Z,28.02
2016-08-01T07:36:41.126Z,28.06
2016-08-01T07:37:41.160Z,28.03
2016-08-01T07:38:41.186Z,28.19
2016-08-01T07:39:41.209Z,28.62
2016-08-01T07:40:41.240Z,28.83
2016-08-01T07:41:41.280Z,29.02
2016-08-01T07:42:41.295Z,29.05
2016-08-01T07:43:41.325Z,29.18
2016-08-01T07:44:41.355Z,29.15
2016-08-01T07:45:42.284Z,29.27
2016-08-01T07:46:41.410Z,29.3
2016-08-01T07:47:41.438Z,29.46
2016-08-01T07:48:41.465Z,29.41
2016-08-01T07:49:41.497Z,29.42
2016-08-01T07:50:41.527Z,29.27
2016-08-01T07:51:41.556Z,29.11
2016-08-01T07:52:41.582Z,29.28
2016-08-01T07:53:41.620Z,29.43
2016-08-01T07:54:41.642Z,29.52
2016-08-01T07:55:41.691Z,29.58
2016-08-01T07:56:41.700Z,29.63
2016-08-01T07:57:41.727Z,29.74
2016-08-01T07:58:41.764Z,29.74
2016-08-01T07:59:41.782Z,29.79
2016-08-01T08:00:41.815Z,29.86
2016-08-01T08:01:41.843Z,29.85
2016-08-01T08:02:41.874Z,29.85
2016-08-01T08:03:41.903Z,29.87
2016-08-01T08:04:41.929Z,29.85
2016-08-01T08:05:41.960Z,29.92
2016-08-01T08:06:41.990Z,29.86
2016-08-01T08:07:42.017Z,29.98
2016-08-01T08:08:42.047Z,30
2016-08-01T08:09:42.076Z,29.95
2016-08-01T08:10:42.104Z,30.07
2016-08-01T08:11:42.133Z,30.08
2016-08-01T08:12:42.162Z,30.05
2016-08-01T08:13:42.191Z,30.13
2016-08-01T08:14:42.918Z,30.19
2016-08-01T08:15:42.253Z,30.16
2016-08-01T08:16:42.287Z,30.07
2016-08-01T08:17:42.309Z,29.85
2016-08-01T08:18:42.337Z,29.51
2016-08-01T08:19:42.369Z,29.51
2016-08-01T08:20:42.392Z,29.39
2016-08-01T08:21:42.426Z,29.37
2016-08-01T08:22:42.460Z,29.36
2016-08-01T08:23:42.485Z,29.31
2016-08-01T08:24:42.507Z,29.21
2016-08-01T08:25:42.741Z,29.19
2016-08-01T08:26:42.565Z,29.05
2016-08-01T08:27:42.599Z,29.08
2016-08-01T08:28:42.619Z,28.93
2016-08-01T08:29:42.657Z,28.96
2016-08-01T08:30:42.686Z,28.92
2016-08-01T08:31:42.709Z,28.83
2016-08-01T08:32:42.739Z,28.85
2016-08-01T08:33:42.765Z,28.78
2016-08-01T08:34:42.798Z,28.77
2016-08-01T08:35:42.824Z,28.76
2016-08-01T08:36:42.851Z,28.67
2016-08-01T08:37:42.882Z,28.77
2016-08-01T08:38:42.976Z,28.71
2016-08-01T08:39:42.940Z,28.7
2016-08-01T08:40:42.969Z,28.67
2016-08-01T08:41:43.000Z,28.67
2016-08-01T08:42:43.031Z,28.67
2016-08-01T08:43:43.069Z,28.67
2016-08-01T08:44:43.083Z,28.62
2016-08-01T08:45:43.125Z,28.61
2016-08-01T08:46:43.140Z,28.52
2016-08-01T08:47:43.169Z,28.59
2016-08-01T08:48:43.205Z,28.48
2016-08-01T08:49:43.227Z,28.54
2016-08-01T08:50:43.255Z,28.48
2016-08-01T08:51:43.287Z,28.52
2016-08-01T08:52:43.315Z,28.4
2016-08-01T08:53:43.343Z,28.43
2016-08-01T08:54:43.369Z,28.52
2016-08-01T08:55:43.411Z,28.37
2016-08-01T08:56:43.427Z,28.27
2016-08-01T08:57:43.455Z,28.29
2016-08-01T08:58:43.493Z,28.29
2016-08-01T08:59:43.515Z,28.29
2016-08-01T09:00:43.550Z,28.17
2016-08-01T09:01:43.572Z,28.09
2016-08-01T09:02:43.599Z,28.11
2016-08-01T09:03:43.636Z,28.07
2016-08-01T09:04:43.669Z,28.04
2016-08-01T09:05:43.691Z,28.04
2016-08-01T09:06:43.714Z,28.04
2016-08-01T09:07:43.742Z,28.02
2016-08-01T09:08:43.771Z,27.97
2016-08-01T09:09:43.802Z,28.03
2016-08-01T09:10:43.832Z,28.04
2016-08-01T09:11:43.860Z,28.07
2016-08-01T09:12:43.887Z,27.97
2016-08-01T09:13:43.916Z,28.07
2016-08-01T09:14:43.947Z,28.06
2016-08-01T09:15:43.980Z,28.07
2016-08-01T09:16:44.699Z,28.02
2016-08-01T09:17:44.033Z,28.03
2016-08-01T09:18:44.063Z,28.02
2016-08-01T09:19:44.090Z,27.87
2016-08-01T09:20:44.119Z,27.85
2016-08-01T09:21:44.149Z,27.88
2016-08-01T09:22:44.185Z,27.84
2016-08-01T09:23:44.205Z,27.78
2016-08-01T09:24:44.232Z,27.81
2016-08-01T09:25:44.263Z,27.77
2016-08-01T09:26:44.290Z,27.63
2016-08-01T09:27:44.324Z,27.67
2016-08-01T09:28:44.350Z,27.72
2016-08-01T09:29:44.377Z,27.67
2016-08-01T09:30:44.406Z,27.63
2016-08-01T09:31:44.431Z,27.6
2016-08-01T09:32:44.463Z,27.44
2016-08-01T09:33:44.489Z,27.49
2016-08-01T09:34:44.515Z,27.51
2016-08-01T09:35:44.552Z,27.43
2016-08-01T09:36:44.575Z,27.47
2016-08-01T09:37:44.603Z,27.37
2016-08-01T09:38:44.634Z,27.44
2016-08-01T09:39:44.661Z,27.36
2016-08-01T09:40:44.692Z,27.31
2016-08-01T09:41:44.716Z,27.4
2016-08-01T09:42:44.749Z,27.36
2016-08-01T09:43:44.779Z,27.36
2016-08-01T09:44:44.804Z,27.29
2016-08-01T09:45:44.834Z,27.27
2016-08-01T09:46:44.859Z,27.19
2016-08-01T09:47:44.890Z,27.22
2016-08-01T09:48:44.916Z,27.12
2016-08-01T09:49:44.946Z,27.24
2016-08-01T09:50:44.977Z,27.17
2016-08-01T09:51:45.005Z,27.21
2016-08-01T09:52:45.762Z,27.19
2016-08-01T09:53:45.059Z,27.25
2016-08-01T09:54:45.090Z,27.19
2016-08-01T09:55:45.118Z,27.14
2016-08-01T09:56:45.146Z,27.13
2016-08-01T09:57:45.174Z,27.07
2016-08-01T09:58:45.204Z,27.12
2016-08-01T09:59:45.232Z,27.12
2016-08-01T10:00:45.258Z,27
2016-08-01T10:01:45.288Z,27.03
2016-08-01T10:02:45.318Z,27
2016-08-01T10:03:45.345Z,27.04
2016-08-01T10:04:45.374Z,26.97
2016-08-01T10:05:45.402Z,27.02
2016-08-01T10:06:45.430Z,26.94
2016-08-01T10:07:45.461Z,26.97
2016-08-01T10:08:45.484Z,26.89
2016-08-01T10:09:45.520Z,26.89
2016-08-01T10:10:45.542Z,26.81
2016-08-01T10:11:45.575Z,26.85
2016-08-01T10:12:45.599Z,26.82
2016-08-01T10:13:45.630Z,26.81
2016-08-01T10:14:45.662Z,26.81
2016-08-01T10:15:45.686Z,26.82
2016-08-01T10:16:45.713Z,26.88
2016-08-01T10:17:45.744Z,26.84
2016-08-01T10:18:45.769Z,26.81
2016-08-01T10:19:45.800Z,26.81
2016-08-01T10:20:45.825Z,26.82
2016-08-01T10:21:45.855Z,26.82
2016-08-01T10:22:45.882Z,26.82
2016-08-01T10:23:45.911Z,26.77
2016-08-01T10:24:45.942Z,26.77
2016-08-01T10:25:45.973Z,26.82
2016-08-01T10:26:45.997Z,26.84
2016-08-01T10:27:46.026Z,26.82
2016-08-01T10:28:46.056Z,26.84
2016-08-01T10:29:46.080Z,26.94
2016-08-01T10:30:46.109Z,26.87
2016-08-01T10:31:46.140Z,26.89
2016-08-01T10:32:46.167Z,26.87
2016-08-01T10:33:46.192Z,27
2016-08-01T10:34:46.228Z,26.94
2016-08-01T10:35:46.253Z,26.94
2016-08-01T10:36:46.522Z,26.95
2016-08-01T10:37:46.309Z,27.02
2016-08-01T10:38:46.336Z,26.88
2016-08-01T10:39:46.366Z,26.88
2016-08-01T10:40:46.398Z,26.97
2016-08-01T10:41:46.421Z,26.97
2016-08-01T10:42:46.458Z,26.95
2016-08-01T10:43:46.477Z,26.97
2016-08-01T10:44:46.504Z,27
2016-08-01T10:45:46.534Z,26.92
2016-08-01T10:46:46.566Z,26.87
2016-08-01T10:47:46.588Z,26.84
2016-08-01T10:48:46.621Z,26.88
2016-08-01T10:49:46.647Z,26.8
2016-08-01T10:50:46.674Z,26.81
2016-08-01T10:51:46.706Z,26.8
2016-08-01T10:52:46.733Z,26.81
2016-08-01T10:53:46.760Z,26.72
2016-08-01T10:54:46.803Z,26.76
2016-08-01T10:55:46.816Z,26.67
2016-08-01T10:56:46.845Z,26.66
2016-08-01T10:57:46.876Z,26.63
2016-08-01T10:58:46.903Z,26.7
2016-08-01T10:59:46.929Z,26.66
2016-08-01T11:00:47.670Z,26.63
2016-08-01T11:01:46.989Z,26.69
2016-08-01T11:02:47.014Z,26.6
2016-08-01T11:03:47.045Z,26.65
2016-08-01T11:04:47.074Z,26.52
2016-08-01T11:05:47.103Z,26.54
2016-08-01T11:06:47.128Z,26.55
2016-08-01T11:07:47.157Z,26.47
2016-08-01T11:08:47.187Z,26.44
2016-08-01T11:09:47.216Z,26.4
2016-08-01T11:10:47.241Z,26.4
2016-08-01T11:11:47.272Z,26.5
2016-08-01T11:12:47.303Z,26.44
2016-08-01T11:13:48.031Z,26.47
2016-08-01T11:14:47.354Z,26.45
2016-08-01T11:15:47.382Z,26.44
2016-08-01T11:16:47.416Z,26.45
2016-08-01T11:17:47.438Z,26.44
2016-08-01T11:18:47.466Z,26.36
2016-08-01T11:19:47.496Z,26.4
2016-08-01T11:20:47.529Z,26.39
2016-08-01T11:21:47.553Z,26.37
2016-08-01T11:22:47.582Z,26.44
2016-08-01T11:23:47.606Z,26.43
2016-08-01T11:24:47.634Z,26.54
2016-08-01T11:25:47.666Z,26.62
2016-08-01T11:26:47.692Z,26.54
2016-08-01T11:27:47.720Z,26.55
2016-08-01T11:28:47.749Z,26.65
2016-08-01T11:29:47.776Z,26.6
2016-08-01T11:30:47.817Z,26.6
2016-08-01T11:31:47.833Z,26.62
2016-08-01T11:32:47.859Z,26.52
2016-08-01T11:33:47.894Z,26.55
2016-08-01T11:34:47.918Z,26.54
2016-08-01T11:35:47.944Z,26.54
2016-08-01T11:36:47.975Z,26.52
2016-08-01T11:37:48.003Z,26.66
2016-08-01T11:38:48.030Z,26.65
2016-08-01T11:39:48.059Z,26.66
2016-08-01T11:40:48.085Z,26.69
2016-08-01T11:41:48.116Z,26.75
2016-08-01T11:42:48.145Z,26.66
2016-08-01T11:43:48.170Z,26.7
2016-08-01T11:44:48.203Z,26.6
2016-08-01T11:45:48.229Z,26.66
2016-08-01T11:46:48.258Z,26.76
2016-08-01T11:47:48.488Z,26.72
2016-08-01T11:48:48.316Z,26.72
2016-08-01T11:49:48.342Z,26.65
2016-08-01T11:51:48.403Z,26.65
2016-08-01T11:52:48.426Z,26.7
2016-08-01T11:53:48.453Z,26.69
2016-08-01T11:54:48.496Z,26.62
2016-08-01T11:55:48.510Z,26.58
2016-08-01T11:56:48.543Z,26.48
2016-08-01T11:57:48.581Z,26.44
2016-08-01T11:58:48.599Z,26.48
2016-08-01T11:59:48.621Z,26.48
2016-08-01T12:00:48.652Z,26.43
2016-08-01T12:01:48.680Z,26.4
2016-08-01T12:02:48.707Z,26.4
2016-08-01T12:03:48.738Z,26.36
2016-08-01T12:04:48.765Z,26.37
2016-08-01T12:06:48.821Z,26.4
2016-08-01T12:07:48.846Z,26.4
2016-08-01T12:08:48.878Z,26.4
2016-08-01T12:09:48.903Z,26.4
2016-08-01T12:10:48.939Z,26.4
2016-08-01T12:11:48.966Z,26.4
2016-08-01T12:12:48.987Z,26.44
2016-08-01T12:13:49.016Z,26.37
2016-08-01T12:14:49.060Z,26.45
2016-08-01T12:15:49.072Z,26.39
2016-08-01T12:16:49.242Z,26.5
2016-08-01T12:17:49.130Z,26.39
2016-08-01T12:18:49.160Z,26.48
2016-08-01T12:19:49.187Z,26.36
2016-08-01T12:20:49.213Z,26.36
2016-08-01T12:21:49.245Z,26.36
2016-08-01T12:22:49.273Z,26.37
2016-08-01T12:23:49.307Z,26.44
2016-08-01T12:24:49.327Z,26.45
2016-08-01T12:25:49.357Z,26.39
2016-08-01T12:26:49.386Z,26.39
2016-08-01T12:27:49.414Z,26.25
2016-08-01T12:28:49.449Z,26.37
2016-08-01T12:29:49.466Z,26.28
2016-08-01T12:30:49.511Z,26.28
2016-08-01T12:31:49.526Z,26.26
2016-08-01T12:32:49.552Z,26.29
2016-08-01T12:33:49.582Z,26.29
2016-08-01T12:34:49.610Z,26.32
2016-08-01T12:35:49.637Z,26.3
2016-08-01T12:36:49.666Z,26.25
2016-08-01T12:37:49.696Z,26.3
2016-08-01T12:38:49.721Z,26.28
2016-08-01T12:39:49.752Z,26.26
2016-08-01T12:40:49.779Z,26.26
2016-08-01T12:41:49.806Z,26.23
2016-08-01T12:42:49.838Z,26.25
2016-08-01T12:43:49.865Z,26.33
2016-08-01T12:44:49.891Z,26.18
2016-08-01T12:45:49.919Z,26.23
2016-08-01T12:46:49.949Z,26.15
2016-08-01T12:47:49.972Z,26.18
2016-08-01T12:48:50.005Z,26.2
2016-08-01T12:49:50.029Z,26.18
2016-08-01T12:50:50.060Z,26.18
2016-08-01T12:51:50.086Z,26.2
2016-08-01T12:52:50.117Z,26.23
2016-08-01T12:53:50.144Z,26.35
2016-08-01T12:54:50.174Z,26.26
2016-08-01T12:55:50.201Z,26.2
2016-08-01T12:56:50.235Z,26.28
2016-08-01T12:57:50.256Z,26.29
2016-08-01T12:58:50.286Z,26.28
2016-08-01T12:59:50.313Z,26.28
2016-08-01T13:00:50.341Z,26.29
2016-08-01T13:01:50.384Z,26.26
2016-08-01T13:02:50.398Z,26.29
2016-08-01T13:03:50.426Z,26.37
2016-08-01T13:04:50.461Z,26.37
2016-08-01T13:05:50.483Z,26.39
2016-08-01T13:06:50.511Z,26.33
2016-08-01T13:07:51.238Z,26.43